Airfield :
LOGIN :

Register | Disclaimer

   EN    FR    IT 

 










Legend :    VFR   Marginal VFR   IFR   Intensive IFR   Very Intensive IFR
Visi :
Ceiling :
>= 8 km
>= 3000ft
5 to 8 km
1000 to 3000 ft
1500m to 5 km
500 to 1000 ft
800 to 1500m
200 to 500 ft
< 800m
< 200 ft
Symbols :   Thunderstorms  Fog  Heavy snow  Heavy precipitations  Wind > 20 kt
SIGMETs :     Misc.  Thunderstorms  Icing  Turbulence  Mountain Waves  Volcanic Ashes







- Airport Elevation : 42 ft
- IATA code : LMO


EGQS - Lossiemouth

CURRENT METAR :
  • 141650Z 20013KT CAVOK 15/11 Q1005 BLU NOSIG

EXPIRED METARs :
  • 141550Z 21014KT 9999 FEW030 BKN240 15/11 Q1005 BLU NOSIG
  • 141450Z 21011KT 9999 FEW030 SCT080 BKN250 16/12 Q1005 BLU NOSIG

TAF TAF EGQS
Valid from the 14 at 18:00 until the 15 at 12:00 UTC


141639Z 1418/1512 21014KT 9999 SCT035
PROB30
TEMPO 1418/1512 21016G28KT
No reported NOTAMs for that airfield.
1 SIGMET reported for the Scottish FIR (EGPX) :
 
Severe mountain waves
EGPX SIGMET 04 VALID 141600/141930 EGRR
EGPX SCOTTISH FIR SEV MTW FCST S OF LINE N5835 W01000 - N5719 E00427 FL020/320 MOV N 10KT NC=



MET'MAP, your aeronautical weather chart ! - Copyright ORBIFLY December 2007 - Disclaimer

ORBIFLY MET'MAP TEAM :

Programming & Development : Alexandra Zaïnal
Concept & Development : Baudouin d'Aumeries
Co-Development & Prog : Marc-Olivier Méhu
Technical & hardware support : Manuel Goepfert

Contact : metmap@orbifly.com




SOURCES & CREDITS :

   NOAA